Decoded Metar for KLHQ (LANCASTER in OH, USA) (IATA:LHQ) | Meteo·Mobile Aviation Weather
aviador You're here:

KLHQ Decoded Metar

LANCASTER in OH, USA
Report Time2018-09-21 08:53:00
UTC Time2018-09-21 09:56:59
Flight Rules vfr VFR
Wind140° at 05 kt
W.Decomp.*RWY 10: 3.5 kt HW 3.6 kt RCW
W.Rank140° ranks 12
Current wind is below 140° avg. (6.0)
Visibility9999 m
Phenomena:N/A
Clouds:N/A
Expected CloudBase > 800 ft AGL from Temp-Dew spread
CeilingNone
Temp23°C (ISA +10)
Dew Point21°C (89% RH)
QNH1017 hPa
Density Alt2,175 ft
Elevation853 ft
Report Wrong Elevation
Raw Report
KLHQ 210853Z AUTO 14005KT 10SM CLR 23/21 A3004 RMK AO2 SLP164
T02330211 53000=

Extra information for KLHQ:More info

Metar Taf Metar & Taf Last 4 Metars F.Rules Stats Wind Profile Meteogram Temp Stats Airport Information Weather charts Add Link Nearby VenuesMetar ALERT Operation Metar Decoded Social comments

AIRNAV info for KLHQ